Time;durP1;ratioP1;P1;durP2;ratioP2;P2;SDS_P1;SDS_P2;PMS_P1;PMS_P2;Temp;Humidity;BMP_temperature;BMP_pressure;BME280_temperature;BME280_humidity;BME280_pressure;Samples;Min_cycle;Max_cycle;Signal;HPM_P1;HPM_P2
2023/05/09 00:01:38;;;;;;;40.35;22.00;;;;;;;;;;5046710;28;20044;-73
2023/05/09 00:04:05;;;;;;;41.55;21.80;;;;;;;;;;5057132;28;20057;-73
2023/05/09 00:06:32;;;;;;;44.30;22.80;;;;;;;;;;5073904;28;20041;-73
2023/05/09 00:08:58;;;;;;;43.55;22.50;;;;;;;;;;5075857;28;20058;-73
2023/05/09 00:11:24;;;;;;;46.75;24.63;;;;;;;;;;5074829;28;20044;-73
2023/05/09 00:13:50;;;;;;;43.67;22.67;;;;;;;;;;5070515;28;20166;-73
2023/05/09 00:16:19;;;;;;;45.20;22.38;;;;;;;;;;5058311;28;20036;-74
2023/05/09 00:18:46;;;;;;;43.58;23.45;;;;;;;;;;5057172;28;20399;-73
2023/05/09 00:21:12;;;;;;;45.58;23.02;;;;;;;;;;5057173;28;20045;-74
2023/05/09 00:23:38;;;;;;;48.58;23.98;;;;;;;;;;5064723;28;20047;-73
2023/05/09 00:26:04;;;;;;;44.88;24.35;;;;;;;;;;5076539;28;20044;-73
2023/05/09 00:28:31;;;;;;;48.85;24.60;;;;;;;;;;5072781;28;20045;-73
2023/05/09 00:30:57;;;;;;;47.72;23.90;;;;;;;;;;5056492;28;20053;-73
2023/05/09 00:33:25;;;;;;;44.53;24.88;;;;;;;;;;5065308;28;20052;-73
2023/05/09 00:35:52;;;;;;;49.88;25.02;;;;;;;;;;5058402;28;20087;-73
2023/05/09 00:38:18;;;;;;;47.20;23.67;;;;;;;;;;5056965;28;20045;-73
2023/05/09 00:40:44;;;;;;;51.92;24.73;;;;;;;;;;5072246;28;20044;-73
2023/05/09 00:43:10;;;;;;;46.28;24.45;;;;;;;;;;5074412;28;20036;-74
2023/05/09 00:45:36;;;;;;;49.55;25.45;;;;;;;;;;5076183;28;20041;-73
2023/05/09 00:48:03;;;;;;;49.90;24.90;;;;;;;;;;5041112;28;20048;-73
2023/05/09 00:50:29;;;;;;;44.67;24.23;;;;;;;;;;5076122;28;20141;-73
2023/05/09 00:52:55;;;;;;;50.75;24.88;;;;;;;;;;5073379;28;20048;-74
2023/05/09 00:55:22;;;;;;;49.17;25.30;;;;;;;;;;5076087;28;20048;-73
2023/05/09 00:57:48;;;;;;;52.05;25.88;;;;;;;;;;5065988;28;20494;-74
2023/05/09 01:00:14;;;;;;;50.83;25.02;;;;;;;;;;5059742;28;20555;-73
2023/05/09 01:02:41;;;;;;;48.70;24.90;;;;;;;;;;5061321;28;20040;-73
2023/05/09 01:05:07;;;;;;;51.25;24.40;;;;;;;;;;5062747;28;20423;-74
2023/05/09 01:07:56;;;;;;;52.08;24.63;;;;;;;;;;5075103;28;20052;-74
2023/05/09 01:10:31;;;;;;;50.65;25.60;;;;;;;;;;5071469;28;20053;-73
2023/05/09 01:13:00;;;;;;;50.92;26.10;;;;;;;;;;5048472;28;20111;-73
2023/05/09 01:15:29;;;;;;;49.95;25.08;;;;;;;;;;5060898;28;20043;-73
2023/05/09 01:18:04;;;;;;;47.67;24.90;;;;;;;;;;5065096;28;20119;-73
2023/05/09 01:20:38;;;;;;;50.87;25.80;;;;;;;;;;5064972;28;20052;-73
2023/05/09 01:23:10;;;;;;;52.15;25.02;;;;;;;;;;5055790;28;20122;-73
2023/05/09 01:25:53;;;;;;;48.08;23.88;;;;;;;;;;5065880;28;20052;-73
2023/05/09 01:28:42;;;;;;;53.80;24.25;;;;;;;;;;5073489;28;20056;-73
2023/05/09 01:31:09;;;;;;;51.83;25.20;;;;;;;;;;5070014;28;20037;-73
2023/05/09 01:33:37;;;;;;;47.83;24.48;;;;;;;;;;5062749;28;20076;-73
2023/05/09 01:36:05;;;;;;;51.28;25.52;;;;;;;;;;5072016;28;20090;-73
2023/05/09 01:38:32;;;;;;;49.70;25.35;;;;;;;;;;5055264;28;20075;-73
2023/05/09 01:40:59;;;;;;;52.85;25.77;;;;;;;;;;5056263;28;20056;-73
2023/05/09 01:43:27;;;;;;;52.55;25.52;;;;;;;;;;5069862;28;20124;-73
2023/05/09 01:45:53;;;;;;;54.20;26.23;;;;;;;;;;5074274;28;20546;-73
2023/05/09 01:48:20;;;;;;;57.50;25.92;;;;;;;;;;5062443;28;20091;-73
2023/05/09 01:50:47;;;;;;;58.28;28.13;;;;;;;;;;5059398;28;20052;-73
2023/05/09 01:53:13;;;;;;;56.55;26.52;;;;;;;;;;5054775;28;20045;-74
2023/05/09 01:55:40;;;;;;;57.22;27.20;;;;;;;;;;5061266;28;20104;-72
2023/05/09 01:58:07;;;;;;;56.42;26.13;;;;;;;;;;5074914;28;20074;-72
2023/05/09 02:00:34;;;;;;;57.50;29.05;;;;;;;;;;5041399;28;20084;-73
2023/05/09 02:03:01;;;;;;;57.22;27.17;;;;;;;;;;5062540;28;20422;-72
2023/05/09 02:05:28;;;;;;;52.42;26.65;;;;;;;;;;5072995;28;20040;-72
2023/05/09 02:07:57;;;;;;;58.95;27.25;;;;;;;;;;5073902;28;20387;-73
2023/05/09 02:10:26;;;;;;;58.25;27.70;;;;;;;;;;5071336;28;20040;-73
2023/05/09 02:12:53;;;;;;;53.40;26.92;;;;;;;;;;5033250;28;20403;-72
2023/05/09 02:15:19;;;;;;;56.80;27.08;;;;;;;;;;5072487;28;20037;-72
2023/05/09 02:17:45;;;;;;;58.08;26.00;;;;;;;;;;5074618;28;20043;-72
2023/05/09 02:20:12;;;;;;;56.40;26.50;;;;;;;;;;5048059;28;20102;-72
2023/05/09 02:22:40;;;;;;;54.33;25.70;;;;;;;;;;5071855;28;20119;-72
2023/05/09 02:25:07;;;;;;;55.33;25.38;;;;;;;;;;5072384;28;20120;-72
2023/05/09 02:27:33;;;;;;;51.80;26.35;;;;;;;;;;5073483;28;20127;-72
2023/05/09 02:30:02;;;;;;;51.50;25.80;;;;;;;;;;5071566;28;20037;-72
2023/05/09 02:32:30;;;;;;;52.15;26.35;;;;;;;;;;5074217;28;20106;-72
2023/05/09 02:34:57;;;;;;;51.97;27.02;;;;;;;;;;5066551;28;20430;-72
2023/05/09 02:37:23;;;;;;;54.63;25.63;;;;;;;;;;5069870;28;20047;-72
2023/05/09 02:39:50;;;;;;;55.35;27.65;;;;;;;;;;5064588;28;20072;-72
2023/05/09 02:42:19;;;;;;;54.80;26.23;;;;;;;;;;5055000;28;20479;-72
2023/05/09 02:44:45;;;;;;;58.45;27.77;;;;;;;;;;5065778;28;20051;-72
2023/05/09 02:47:11;;;;;;;53.63;25.23;;;;;;;;;;5056021;28;20483;-72
2023/05/09 02:49:37;;;;;;;53.53;26.88;;;;;;;;;;5067047;28;20095;-72
2023/05/09 02:52:03;;;;;;;52.97;27.15;;;;;;;;;;5068764;28;20044;-72
2023/05/09 02:54:29;;;;;;;63.13;26.45;;;;;;;;;;5072716;28;20399;-72
2023/05/09 02:56:55;;;;;;;58.47;27.23;;;;;;;;;;5077323;28;20044;-72
2023/05/09 02:59:21;;;;;;;58.55;27.27;;;;;;;;;;5073783;28;20037;-72
2023/05/09 03:01:47;;;;;;;57.03;27.20;;;;;;;;;;5074058;28;20055;-72
2023/05/09 03:04:13;;;;;;;58.50;26.45;;;;;;;;;;5066827;28;20049;-72
2023/05/09 03:06:39;;;;;;;60.38;27.33;;;;;;;;;;5045677;28;20052;-73
2023/05/09 03:09:06;;;;;;;57.95;27.10;;;;;;;;;;5069748;28;20040;-72
2023/05/09 03:11:32;;;;;;;61.38;27.35;;;;;;;;;;5070432;28;20037;-72
2023/05/09 03:13:58;;;;;;;55.60;27.00;;;;;;;;;;5066685;28;21900;-72
2023/05/09 03:16:24;;;;;;;57.72;26.95;;;;;;;;;;5067582;28;20048;-72
2023/05/09 03:18:50;;;;;;;59.83;29.17;;;;;;;;;;5073257;28;20047;-72
2023/05/09 03:21:16;;;;;;;60.15;27.75;;;;;;;;;;5066479;28;20123;-72
2023/05/09 03:23:42;;;;;;;61.72;28.80;;;;;;;;;;5044562;28;20080;-72
2023/05/09 03:26:08;;;;;;;58.67;27.55;;;;;;;;;;5059664;28;20079;-72
2023/05/09 03:28:34;;;;;;;60.75;28.77;;;;;;;;;;5059380;28;20099;-72
2023/05/09 03:31:00;;;;;;;68.45;30.10;;;;;;;;;;5055327;28;20498;-72
2023/05/09 03:33:26;;;;;;;62.63;29.38;;;;;;;;;;5071505;28;20072;-72
2023/05/09 03:35:53;;;;;;;65.00;27.55;;;;;;;;;;5043260;28;20041;-72
2023/05/09 03:38:19;;;;;;;60.38;28.08;;;;;;;;;;5053364;28;20116;-72
2023/05/09 03:40:45;;;;;;;60.33;27.85;;;;;;;;;;5070370;28;20149;-72
2023/05/09 03:43:11;;;;;;;64.00;28.80;;;;;;;;;;5053499;28;20506;-72
2023/05/09 03:45:37;;;;;;;57.92;27.40;;;;;;;;;;5061513;28;20064;-72
2023/05/09 03:48:07;;;;;;;63.78;28.27;;;;;;;;;;5063517;28;20052;-72
2023/05/09 03:50:33;;;;;;;62.35;28.88;;;;;;;;;;5063035;28;20384;-72
2023/05/09 03:52:59;;;;;;;60.45;28.27;;;;;;;;;;5050037;28;20041;-72
2023/05/09 03:55:25;;;;;;;63.10;28.42;;;;;;;;;;5053182;28;20040;-72
2023/05/09 03:57:51;;;;;;;60.67;28.52;;;;;;;;;;5052905;28;20033;-72
2023/05/09 04:00:17;;;;;;;61.75;28.10;;;;;;;;;;5044065;28;20075;-72
2023/05/09 04:02:43;;;;;;;60.08;28.65;;;;;;;;;;5071955;28;20196;-72
2023/05/09 04:05:09;;;;;;;63.03;29.15;;;;;;;;;;5069069;28;20049;-72
2023/05/09 04:07:35;;;;;;;66.15;28.77;;;;;;;;;;5069489;28;20056;-72
2023/05/09 04:10:01;;;;;;;55.38;26.92;;;;;;;;;;5054238;28;20040;-72
2023/05/09 04:12:27;;;;;;;63.50;28.27;;;;;;;;;;5057563;28;20048;-72
2023/05/09 04:14:53;;;;;;;60.85;28.83;;;;;;;;;;5053461;28;20045;-72
2023/05/09 04:17:20;;;;;;;63.97;28.85;;;;;;;;;;5072106;28;20601;-72
2023/05/09 04:19:46;;;;;;;58.22;27.05;;;;;;;;;;5065645;28;20087;-72
2023/05/09 04:22:12;;;;;;;57.40;27.40;;;;;;;;;;5035191;28;20049;-72
2023/05/09 04:24:38;;;;;;;62.58;29.13;;;;;;;;;;5053657;28;20364;-72
2023/05/09 04:27:04;;;;;;;58.47;28.05;;;;;;;;;;5072923;28;20540;-72
2023/05/09 04:29:31;;;;;;;57.88;28.05;;;;;;;;;;5072626;28;20094;-72
2023/05/09 04:31:57;;;;;;;60.47;28.08;;;;;;;;;;5052729;28;20071;-72
2023/05/09 04:34:25;;;;;;;60.33;28.85;;;;;;;;;;5052455;28;20067;-72
2023/05/09 04:36:51;;;;;;;57.85;27.48;;;;;;;;;;5045515;28;20127;-72
2023/05/09 04:39:18;;;;;;;57.83;28.52;;;;;;;;;;5057942;28;20124;-72
2023/05/09 04:41:46;;;;;;;58.40;28.30;;;;;;;;;;5054289;28;20067;-72
2023/05/09 04:44:12;;;;;;;54.47;26.90;;;;;;;;;;5056027;28;20095;-72
2023/05/09 04:46:39;;;;;;;59.22;28.45;;;;;;;;;;5056389;28;20446;-72
2023/05/09 04:49:05;;;;;;;60.03;29.20;;;;;;;;;;5069640;28;20049;-72
2023/05/09 04:51:31;;;;;;;53.47;26.92;;;;;;;;;;5039730;28;20494;-72
2023/05/09 04:53:57;;;;;;;55.70;27.45;;;;;;;;;;5045216;28;20045;-72
2023/05/09 04:56:23;;;;;;;59.42;28.13;;;;;;;;;;5073310;28;20047;-72
2023/05/09 04:58:50;;;;;;;57.90;28.85;;;;;;;;;;5076181;28;20123;-72
2023/05/09 05:01:16;;;;;;;56.22;28.98;;;;;;;;;;5057432;28;20044;-72
2023/05/09 05:03:42;;;;;;;58.00;27.45;;;;;;;;;;5062120;28;20033;-72
2023/05/09 05:06:08;;;;;;;65.90;29.08;;;;;;;;;;5075488;28;20127;-72
2023/05/09 05:08:34;;;;;;;61.72;27.83;;;;;;;;;;5068330;28;20127;-72
2023/05/09 05:11:00;;;;;;;57.75;28.15;;;;;;;;;;5057349;28;20196;-72
2023/05/09 05:13:26;;;;;;;60.88;28.13;;;;;;;;;;5054851;28;20087;-72
2023/05/09 05:15:52;;;;;;;59.63;28.42;;;;;;;;;;5061086;28;20041;-73
2023/05/09 05:18:19;;;;;;;59.22;28.23;;;;;;;;;;5058756;28;20376;-74
2023/05/09 05:20:45;;;;;;;61.10;27.63;;;;;;;;;;5067454;28;20557;-72
2023/05/09 05:23:11;;;;;;;57.17;28.38;;;;;;;;;;5058672;28;20115;-73
2023/05/09 05:25:37;;;;;;;62.33;27.67;;;;;;;;;;5063174;28;20422;-73
2023/05/09 05:28:03;;;;;;;60.35;27.67;;;;;;;;;;5063502;28;20037;-73
2023/05/09 05:30:29;;;;;;;66.88;30.58;;;;;;;;;;5067212;28;20076;-73
2023/05/09 05:32:55;;;;;;;61.78;29.80;;;;;;;;;;5067588;28;20068;-73
2023/05/09 05:35:22;;;;;;;60.38;28.05;;;;;;;;;;5065324;28;20033;-73
2023/05/09 05:37:48;;;;;;;65.25;30.00;;;;;;;;;;5067785;28;20128;-73
2023/05/09 05:40:14;;;;;;;64.90;29.95;;;;;;;;;;5074787;28;20051;-73
2023/05/09 05:42:40;;;;;;;64.38;30.35;;;;;;;;;;5074312;28;20049;-73
2023/05/09 05:45:07;;;;;;;64.03;29.67;;;;;;;;;;5073090;28;20045;-72
2023/05/09 05:47:33;;;;;;;62.63;31.50;;;;;;;;;;5059193;28;20037;-73
2023/05/09 05:50:00;;;;;;;63.80;31.00;;;;;;;;;;5062506;28;20120;-75
2023/05/09 05:52:26;;;;;;;66.32;29.98;;;;;;;;;;5065844;28;20048;-72
2023/05/09 05:54:53;;;;;;;64.50;31.02;;;;;;;;;;5074440;28;20072;-72
2023/05/09 05:57:19;;;;;;;68.10;31.00;;;;;;;;;;5071575;28;20494;-72
2023/05/09 05:59:48;;;;;;;62.00;31.85;;;;;;;;;;5074523;28;20131;-72
2023/05/09 06:02:14;;;;;;;63.22;32.35;;;;;;;;;;5059633;28;20057;-72
2023/05/09 06:04:40;;;;;;;62.83;31.48;;;;;;;;;;5054342;28;20048;-72
2023/05/09 06:07:07;;;;;;;61.78;30.20;;;;;;;;;;5054159;28;20517;-72
2023/05/09 06:09:33;;;;;;;59.33;30.45;;;;;;;;;;5023969;28;20056;-73
2023/05/09 06:11:59;;;;;;;64.03;32.25;;;;;;;;;;5073540;28;20036;-72
2023/05/09 06:14:25;;;;;;;65.75;31.65;;;;;;;;;;5055594;28;20075;-73
2023/05/09 06:16:51;;;;;;;61.67;30.80;;;;;;;;;;5038967;28;20044;-76
2023/05/09 06:19:17;;;;;;;66.13;32.03;;;;;;;;;;5039610;28;20474;-73
2023/05/09 06:21:44;;;;;;;63.78;31.75;;;;;;;;;;5061791;28;20044;-73
2023/05/09 06:24:10;;;;;;;65.57;32.65;;;;;;;;;;5040974;28;20075;-74
2023/05/09 06:26:36;;;;;;;60.67;31.42;;;;;;;;;;5047978;28;20094;-74
2023/05/09 06:29:03;;;;;;;65.47;32.20;;;;;;;;;;5069769;28;20044;-74
2023/05/09 06:31:29;;;;;;;68.82;32.15;;;;;;;;;;5052736;28;20558;-74
2023/05/09 06:33:55;;;;;;;70.80;32.28;;;;;;;;;;5036303;28;20045;-74
2023/05/09 06:36:21;;;;;;;68.80;33.42;;;;;;;;;;5035757;28;20056;-74
2023/05/09 06:38:47;;;;;;;71.00;33.42;;;;;;;;;;5025035;28;20048;-74
2023/05/09 06:41:13;;;;;;;66.40;34.08;;;;;;;;;;5054142;28;20049;-74
2023/05/09 06:43:39;;;;;;;70.65;34.15;;;;;;;;;;5054000;28;20045;-74
2023/05/09 06:46:05;;;;;;;72.60;35.53;;;;;;;;;;5059194;28;20044;-74
2023/05/09 06:48:31;;;;;;;66.28;33.00;;;;;;;;;;5054257;28;20079;-74
2023/05/09 06:50:57;;;;;;;69.40;35.20;;;;;;;;;;5064083;28;20072;-74
2023/05/09 06:53:23;;;;;;;64.63;33.65;;;;;;;;;;5062172;28;20068;-74
2023/05/09 06:55:49;;;;;;;64.85;32.15;;;;;;;;;;5057860;28;20095;-74
2023/05/09 06:58:16;;;;;;;66.85;34.20;;;;;;;;;;5053480;28;20506;-74
2023/05/09 07:00:42;;;;;;;69.95;34.60;;;;;;;;;;5035452;28;20087;-74
2023/05/09 07:03:08;;;;;;;67.05;33.28;;;;;;;;;;5035920;28;20491;-74
2023/05/09 07:05:34;;;;;;;69.25;34.05;;;;;;;;;;5067971;28;20045;-74
2023/05/09 07:08:00;;;;;;;73.75;35.35;;;;;;;;;;5053698;28;20156;-74
2023/05/09 07:10:26;;;;;;;64.88;34.35;;;;;;;;;;5035920;28;20163;-74
2023/05/09 07:12:52;;;;;;;68.45;36.85;;;;;;;;;;5035731;28;20150;-74
2023/05/09 07:15:18;;;;;;;67.93;34.55;;;;;;;;;;5053260;28;20103;-74
2023/05/09 07:17:44;;;;;;;68.38;35.58;;;;;;;;;;5053536;28;20151;-74
2023/05/09 07:20:10;;;;;;;68.82;35.15;;;;;;;;;;5040824;28;20467;-74
2023/05/09 07:22:36;;;;;;;65.88;33.78;;;;;;;;;;5068813;28;20099;-74
2023/05/09 07:25:02;;;;;;;64.22;34.72;;;;;;;;;;5061350;28;20080;-74
2023/05/09 07:27:28;;;;;;;65.75;33.75;;;;;;;;;;5061146;28;20094;-74
2023/05/09 07:29:54;;;;;;;70.53;36.25;;;;;;;;;;5072780;28;20098;-74
2023/05/09 07:32:21;;;;;;;61.13;33.63;;;;;;;;;;5062508;28;20037;-74
2023/05/09 07:34:47;;;;;;;60.40;33.65;;;;;;;;;;5072531;28;20048;-74
2023/05/09 07:37:13;;;;;;;65.20;34.08;;;;;;;;;;5073508;28;20083;-74
2023/05/09 07:39:39;;;;;;;62.72;33.65;;;;;;;;;;5066177;28;20094;-74
2023/05/09 07:42:07;;;;;;;59.55;33.60;;;;;;;;;;5036777;28;20049;-74
2023/05/09 07:44:33;;;;;;;65.38;34.88;;;;;;;;;;5055648;28;20053;-74
2023/05/09 07:47:00;;;;;;;62.85;34.15;;;;;;;;;;5070627;28;20044;-74
2023/05/09 07:49:26;;;;;;;60.03;34.10;;;;;;;;;;5055347;28;20049;-74
2023/05/09 07:51:52;;;;;;;55.80;32.90;;;;;;;;;;5052904;28;20037;-74
2023/05/09 07:54:18;;;;;;;60.97;33.08;;;;;;;;;;5056363;28;20041;-74
2023/05/09 07:56:44;;;;;;;62.72;33.63;;;;;;;;;;5056308;28;20430;-78
2023/05/09 07:59:11;;;;;;;59.00;32.45;;;;;;;;;;5058551;28;20049;-74
2023/05/09 08:01:37;;;;;;;68.53;35.70;;;;;;;;;;5053351;28;20439;-74
2023/05/09 08:04:05;;;;;;;62.47;33.15;;;;;;;;;;5052326;28;20045;-74
2023/05/09 08:06:31;;;;;;;61.53;33.42;;;;;;;;;;5017976;28;20505;-74
2023/05/09 08:09:00;;;;;;;63.10;32.67;;;;;;;;;;5066512;28;20052;-74
2023/05/09 08:11:26;;;;;;;64.97;33.75;;;;;;;;;;5063307;28;20525;-74
2023/05/09 08:13:52;;;;;;;59.30;34.25;;;;;;;;;;5040313;28;20099;-74
2023/05/09 08:16:19;;;;;;;58.60;34.25;;;;;;;;;;5057772;28;20040;-74
2023/05/09 08:18:45;;;;;;;64.05;34.00;;;;;;;;;;5059946;28;20541;-74
2023/05/09 08:21:11;;;;;;;70.25;35.50;;;;;;;;;;5056096;28;20051;-74
2023/05/09 08:23:37;;;;;;;62.17;33.47;;;;;;;;;;5069986;28;20066;-74
2023/05/09 08:26:03;;;;;;;62.17;32.22;;;;;;;;;;5064084;28;20049;-74
2023/05/09 08:28:29;;;;;;;62.08;33.95;;;;;;;;;;5071298;28;20057;-74
2023/05/09 08:30:56;;;;;;;60.13;32.47;;;;;;;;;;5072127;28;20550;-74
2023/05/09 08:33:22;;;;;;;55.65;31.70;;;;;;;;;;5065264;28;20170;-74
2023/05/09 08:35:52;;;;;;;60.50;32.28;;;;;;;;;;5048641;28;20044;-74
2023/05/09 08:38:18;;;;;;;58.58;33.17;;;;;;;;;;5055180;28;20040;-74
2023/05/09 08:40:44;;;;;;;58.45;32.03;;;;;;;;;;5080943;28;20080;-74
2023/05/09 08:43:11;;;;;;;60.78;32.80;;;;;;;;;;5061197;28;20102;-74
2023/05/09 08:45:50;;;;;;;64.30;33.90;;;;;;;;;;5076399;28;20123;-74
2023/05/09 08:48:16;;;;;;;60.08;34.10;;;;;;;;;;5074038;28;20048;-74
2023/05/09 08:50:43;;;;;;;61.35;33.95;;;;;;;;;;5057153;28;20041;-75
2023/05/09 08:53:09;;;;;;;53.67;30.30;;;;;;;;;;5041180;28;20048;-74
2023/05/09 08:55:35;;;;;;;62.00;34.05;;;;;;;;;;5033965;28;20048;-75
2023/05/09 08:58:03;;;;;;;52.05;30.40;;;;;;;;;;5064317;28;20499;-74
2023/05/09 09:00:29;;;;;;;52.33;28.45;;;;;;;;;;5025965;28;20052;-74
2023/05/09 09:02:56;;;;;;;49.50;29.20;;;;;;;;;;5061457;28;20407;-74
2023/05/09 09:05:22;;;;;;;50.58;29.17;;;;;;;;;;5064760;28;20044;-74
2023/05/09 09:07:49;;;;;;;45.00;26.90;;;;;;;;;;5064765;28;20051;-74
2023/05/09 09:10:16;;;;;;;49.55;27.55;;;;;;;;;;5075755;28;20041;-74
2023/05/09 09:12:43;;;;;;;44.28;27.05;;;;;;;;;;5047347;28;20047;-74
2023/05/09 09:15:13;;;;;;;42.28;25.15;;;;;;;;;;5072603;28;20052;-74
2023/05/09 09:17:41;;;;;;;42.03;24.95;;;;;;;;;;5062195;28;20059;-74
2023/05/09 09:20:09;;;;;;;38.45;22.17;;;;;;;;;;5057045;28;20082;-74
2023/05/09 09:22:37;;;;;;;36.67;22.63;;;;;;;;;;5046004;28;20036;-74
2023/05/09 09:25:03;;;;;;;36.67;22.70;;;;;;;;;;5070362;28;20037;-74
2023/05/09 09:27:29;;;;;;;32.60;21.50;;;;;;;;;;5055034;28;20124;-74
2023/05/09 09:30:05;;;;;;;32.72;20.90;;;;;;;;;;5073254;28;20037;-74
2023/05/09 09:32:31;;;;;;;;;;;;;;;;;;5074788;28;20037;-74
2023/05/09 09:35:05;;;;;;;33.85;22.00;;;;;;;;;;5061678;28;19926;-74
2023/05/09 09:37:33;;;;;;;30.27;18.83;;;;;;;;;;5062633;28;20515;-74
2023/05/09 09:39:59;;;;;;;30.98;19.38;;;;;;;;;;5051098;28;20513;-74
2023/05/09 09:42:25;;;;;;;31.90;20.75;;;;;;;;;;5058670;28;20041;-74
2023/05/09 09:45:03;;;;;;;32.05;20.10;;;;;;;;;;5063456;28;20039;-74
2023/05/09 09:47:33;;;;;;;32.22;20.65;;;;;;;;;;5078548;28;20072;-74
2023/05/09 09:50:08;;;;;;;31.42;20.58;;;;;;;;;;5072731;28;20040;-73
2023/05/09 09:52:34;;;;;;;30.65;18.55;;;;;;;;;;5052561;28;20037;-73
2023/05/09 09:55:00;;;;;;;27.13;17.30;;;;;;;;;;5073671;28;20043;-74
2023/05/09 09:57:34;;;;;;;26.55;18.17;;;;;;;;;;5058348;28;20045;-74
2023/05/09 10:00:00;;;;;;;29.50;19.38;;;;;;;;;;5065910;28;20041;-74
2023/05/09 10:02:26;;;;;;;30.42;17.63;;;;;;;;;;5056634;28;20058;-74
2023/05/09 10:04:52;;;;;;;26.88;17.33;;;;;;;;;;5052428;28;20049;-74
2023/05/09 10:07:22;;;;;;;24.45;16.55;;;;;;;;;;5051970;28;20049;-74
2023/05/09 10:09:48;;;;;;;25.27;16.92;;;;;;;;;;5019570;28;20368;-74
2023/05/09 10:12:18;;;;;;;23.40;16.35;;;;;;;;;;5054552;28;20045;-74
2023/05/09 10:14:45;;;;;;;23.13;17.13;;;;;;;;;;5054570;28;20167;-74
2023/05/09 10:17:13;;;;;;;22.00;16.02;;;;;;;;;;5048235;28;20097;-74
2023/05/09 10:19:44;;;;;;;27.25;16.77;;;;;;;;;;5052724;28;20103;-74
2023/05/09 10:22:11;;;;;;;25.45;16.70;;;;;;;;;;5054402;28;20110;-74
2023/05/09 10:24:48;;;;;;;24.08;16.90;;;;;;;;;;5036358;28;20059;-74
2023/05/09 10:27:14;;;;;;;29.73;17.85;;;;;;;;;;5054233;28;20056;-74
2023/05/09 10:29:49;;;;;;;25.67;18.08;;;;;;;;;;5054242;28;20551;-74
2023/05/09 10:32:19;;;;;;;25.85;17.45;;;;;;;;;;5053160;28;20041;-74
2023/05/09 10:34:47;;;;;;;26.20;17.77;;;;;;;;;;5052146;28;20098;-74
2023/05/09 10:37:14;;;;;;;27.52;18.55;;;;;;;;;;5054670;28;20052;-75
2023/05/09 10:39:41;;;;;;;27.13;17.55;;;;;;;;;;5036438;28;20124;-76
2023/05/09 10:42:08;;;;;;;26.48;18.02;;;;;;;;;;5036085;28;20041;-74
2023/05/09 10:44:34;;;;;;;25.77;16.45;;;;;;;;;;5041313;28;20041;-74
2023/05/09 10:47:01;;;;;;;26.65;17.98;;;;;;;;;;5053997;28;20102;-74
2023/05/09 10:49:27;;;;;;;24.23;17.63;;;;;;;;;;5051692;28;20044;-74
2023/05/09 10:51:53;;;;;;;27.23;17.17;;;;;;;;;;5050879;28;20041;-74
2023/05/09 10:54:26;;;;;;;23.55;17.08;;;;;;;;;;5051076;28;20041;-74
2023/05/09 10:56:52;;;;;;;26.38;17.10;;;;;;;;;;5053634;28;20079;-74
2023/05/09 10:59:36;;;;;;;25.42;16.77;;;;;;;;;;5042005;28;20056;-74
2023/05/09 11:02:03;;;;;;;22.98;16.42;;;;;;;;;;5053240;28;20049;-74
2023/05/09 11:04:31;;;;;;;25.02;16.63;;;;;;;;;;5035411;28;20387;-74
2023/05/09 11:06:57;;;;;;;27.20;16.88;;;;;;;;;;5036626;28;20052;-75
2023/05/09 11:09:25;;;;;;;26.05;16.92;;;;;;;;;;5066176;28;20072;-75
2023/05/09 11:11:54;;;;;;;23.00;17.60;;;;;;;;;;5058787;28;20041;-75
2023/05/09 11:14:35;;;;;;;24.27;16.95;;;;;;;;;;5067570;28;20037;-78
2023/05/09 11:17:05;;;;;;;25.35;17.10;;;;;;;;;;5056184;28;20036;-74
2023/05/09 11:19:35;;;;;;;27.48;17.27;;;;;;;;;;5062499;28;20041;-74
2023/05/09 11:22:02;;;;;;;26.00;17.83;;;;;;;;;;5051918;28;20036;-74
2023/05/09 11:24:29;;;;;;;26.60;17.73;;;;;;;;;;5056524;28;20055;-74
2023/05/09 11:26:56;;;;;;;25.35;18.67;;;;;;;;;;5053881;28;20402;-74
2023/05/09 11:29:26;;;;;;;27.08;18.63;;;;;;;;;;5063015;28;20036;-74
2023/05/09 11:32:08;;;;;;;24.85;18.35;;;;;;;;;;5057099;28;20044;-74
2023/05/09 11:34:34;;;;;;;27.63;19.75;;;;;;;;;;5054768;28;20445;-74
2023/05/09 11:37:09;;;;;;;28.42;19.73;;;;;;;;;;5060894;28;20045;-74
2023/05/09 11:39:35;;;;;;;27.50;19.33;;;;;;;;;;5068194;28;20059;-74
2023/05/09 11:42:03;;;;;;;27.50;18.77;;;;;;;;;;5065033;28;20052;-74
2023/05/09 11:44:32;;;;;;;29.50;20.63;;;;;;;;;;5066598;28;20112;-74
2023/05/09 11:46:58;;;;;;;29.13;19.38;;;;;;;;;;5059566;28;20057;-74
2023/05/09 11:49:24;;;;;;;29.60;20.48;;;;;;;;;;5070770;28;20049;-74
2023/05/09 11:51:50;;;;;;;30.17;20.27;;;;;;;;;;5057089;28;20665;-74
2023/05/09 11:54:16;;;;;;;26.70;20.00;;;;;;;;;;5073852;28;20478;-74
2023/05/09 11:56:42;;;;;;;30.10;20.23;;;;;;;;;;5048825;28;20498;-74
2023/05/09 11:59:11;;;;;;;30.63;21.17;;;;;;;;;;5058180;28;20044;-74
2023/05/09 12:01:37;;;;;;;29.23;20.38;;;;;;;;;;5070447;28;20036;-74
2023/05/09 12:04:06;;;;;;;29.58;19.58;;;;;;;;;;5060021;28;20044;-74
2023/05/09 12:06:32;;;;;;;30.90;20.58;;;;;;;;;;5046094;28;20052;-74
2023/05/09 12:08:58;;;;;;;29.10;20.67;;;;;;;;;;5062001;28;20048;-74
2023/05/09 12:11:25;;;;;;;30.35;20.70;;;;;;;;;;5076964;28;20037;-74
2023/05/09 12:13:52;;;;;;;29.02;19.45;;;;;;;;;;5075084;28;20052;-74
2023/05/09 12:16:19;;;;;;;30.48;21.40;;;;;;;;;;5059908;28;20502;-74
2023/05/09 12:18:46;;;;;;;29.40;21.48;;;;;;;;;;5074942;28;20115;-74
2023/05/09 12:21:12;;;;;;;30.38;21.10;;;;;;;;;;5065326;28;20045;-74
2023/05/09 12:23:38;;;;;;;29.40;21.02;;;;;;;;;;5060323;28;20032;-74
2023/05/09 12:26:04;;;;;;;30.92;20.83;;;;;;;;;;5073309;28;20045;-74
2023/05/09 12:28:31;;;;;;;30.08;21.58;;;;;;;;;;5067511;28;20059;-74
2023/05/09 12:30:57;;;;;;;33.10;21.50;;;;;;;;;;5030394;28;20049;-74
2023/05/09 12:33:23;;;;;;;31.17;21.15;;;;;;;;;;5035439;28;20049;-74
2023/05/09 12:36:02;;;;;;;33.83;23.15;;;;;;;;;;5062281;28;20033;-74
2023/05/09 12:38:28;;;;;;;30.58;21.58;;;;;;;;;;5064766;28;20052;-74
2023/05/09 12:41:01;;;;;;;29.73;20.90;;;;;;;;;;5069666;28;20052;-74
2023/05/09 12:43:29;;;;;;;30.95;21.63;;;;;;;;;;5063873;28;20045;-76
2023/05/09 12:45:55;;;;;;;30.20;21.83;;;;;;;;;;5054164;28;20483;-73
2023/05/09 12:48:23;;;;;;;32.28;22.27;;;;;;;;;;5058650;28;20056;-73
2023/05/09 12:50:49;;;;;;;30.13;21.00;;;;;;;;;;5071718;28;20044;-73
2023/05/09 12:53:22;;;;;;;31.30;21.98;;;;;;;;;;5067661;28;20041;-73
2023/05/09 12:55:48;;;;;;;31.63;21.50;;;;;;;;;;5067280;28;20044;-73
2023/05/09 12:58:14;;;;;;;29.90;21.33;;;;;;;;;;5055109;28;20116;-73
2023/05/09 13:00:44;;;;;;;27.60;20.08;;;;;;;;;;5072038;28;20091;-72
2023/05/09 13:03:20;;;;;;;27.83;20.52;;;;;;;;;;5072113;28;20067;-72
2023/05/09 13:05:56;;;;;;;28.17;21.63;;;;;;;;;;5068002;28;20045;-72
2023/05/09 13:08:22;;;;;;;28.05;20.98;;;;;;;;;;5057055;28;20138;-76
2023/05/09 13:10:48;;;;;;;26.50;19.98;;;;;;;;;;5067815;28;20037;-72
2023/05/09 13:13:18;;;;;;;27.95;20.45;;;;;;;;;;5053720;28;20186;-72
2023/05/09 13:15:45;;;;;;;26.00;19.63;;;;;;;;;;5078101;28;20036;-72
2023/05/09 13:18:11;;;;;;;25.60;18.55;;;;;;;;;;5048154;28;20051;-72
2023/05/09 13:20:37;;;;;;;26.27;20.52;;;;;;;;;;5060070;28;20048;-73
2023/05/09 13:23:03;;;;;;;28.13;19.40;;;;;;;;;;5060050;28;20048;-73
2023/05/09 13:25:30;;;;;;;22.48;17.83;;;;;;;;;;5069617;28;20072;-72
2023/05/09 13:27:56;;;;;;;26.02;18.05;;;;;;;;;;5062871;28;21075;-72
2023/05/09 13:30:22;;;;;;;23.88;17.73;;;;;;;;;;5061578;28;20496;-72
2023/05/09 13:32:48;;;;;;;22.05;17.02;;;;;;;;;;5065577;28;20509;-72
2023/05/09 13:35:14;;;;;;;19.30;15.10;;;;;;;;;;5062600;28;20068;-72
2023/05/09 13:37:40;;;;;;;19.05;13.57;;;;;;;;;;5026136;28;20052;-71
2023/05/09 13:40:07;;;;;;;16.67;12.45;;;;;;;;;;5062211;28;20040;-73
2023/05/09 13:42:33;;;;;;;17.52;13.43;;;;;;;;;;5055233;28;20051;-72
2023/05/09 13:45:00;;;;;;;14.00;11.38;;;;;;;;;;5056066;28;20085;-72
2023/05/09 13:47:26;;;;;;;13.10;10.63;;;;;;;;;;5073659;28;20037;-75
2023/05/09 13:49:52;;;;;;;11.52;9.18;;;;;;;;;;5072029;28;20047;-72
2023/05/09 13:52:18;;;;;;;12.20;9.02;;;;;;;;;;5043008;28;20057;-72
2023/05/09 13:54:45;;;;;;;13.40;9.32;;;;;;;;;;5056779;28;20044;-73
2023/05/09 13:57:11;;;;;;;10.70;8.40;;;;;;;;;;5060422;28;20109;-72
2023/05/09 13:59:39;;;;;;;9.82;8.52;;;;;;;;;;5062001;28;20127;-72
2023/05/09 14:02:06;;;;;;;9.82;8.43;;;;;;;;;;5073004;28;20139;-72
2023/05/09 14:04:33;;;;;;;9.00;7.82;;;;;;;;;;5069741;28;20043;-72
2023/05/09 14:06:59;;;;;;;9.35;8.13;;;;;;;;;;5064191;28;20056;-72
2023/05/09 14:09:27;;;;;;;9.82;8.40;;;;;;;;;;5066869;28;20055;-73
2023/05/09 14:11:53;;;;;;;10.07;8.48;;;;;;;;;;5074532;28;20118;-73
2023/05/09 14:14:21;;;;;;;9.73;8.40;;;;;;;;;;5070611;28;20049;-72
2023/05/09 14:16:47;;;;;;;8.60;7.70;;;;;;;;;;5082578;28;20051;-72
2023/05/09 14:19:16;;;;;;;9.23;7.45;;;;;;;;;;5062685;28;20095;-73